Hlavní strana
METAR-TAF:

METAR-TAF

Letiště :

Fort-de-France, Martinik

zeměpisná šířka: 14-36N, zeměpisná délka: 061-00W, výška: 5 m

Aktuální stav počasí

Zpráva byla vytvořena před 19 minutami, v 00:00 UTC
Východní vítr 5 kt
Teplota 24°C
Vlhkost vzduchu 94%
Tlak 1015 hPa
Viditelnost 10 km a více

METAR: TFFF 180000Z AUTO 09005KT 9999 FEW016/// 24/23 Q1015 TEMPO 4000 SHRA SCT018TCU

Čas: 20:19 (00:19 UTC)

Předpověď počasí

Zpráva byla vytvořena před 1 hodinou a 19 minutami, v 23:00 UTC
Předpověď platná od 18 v 00 UTC do 18 v 24 UTC
Východní vítr 5 kt
Viditelnost 10 km a více
Polojasno ve výšce 2000 ft
Dočasný
od 18 v 00 UTC do 18 v 12 UTC
Viditelnost: 4000 m
Polojasno ve výšce 1800 ft, Vertikální cumulus.
dešťové přeháňky

TAF: TFFF 172300Z 1800/1824 08005KT 9999 SCT020 TEMPO 1800/1812 4000 SHRA SCT018TCU

Stav a předpovědi počasí z více než 4 000 letišť (zprávy METAR a TAF).

Červené a žluté tečky na mapě představují dostupné meteorologické stanice.

Když kurzor umístíte na tečku, zobrazí se název stanice.

Pak kliknutím zobrazíte stav a předpověď počasí.

Chcete-li změnit mapu, kliknutím na zelené tlačítko se znaménkem +mapu přiblížíte, kliknutím na zelené tlačítko se znaménkem – mapu oddálíte a kliknutím na zelené šipky přejdete na sousední mapy.


METAR-TAF: